Time;durP1;ratioP1;P1;durP2;ratioP2;P2;SDS_P1;SDS_P2;PMS_P1;PMS_P2;Temp;Humidity;BMP_temperature;BMP_pressure;BME280_temperature;BME280_humidity;BME280_pressure;Samples;Min_cycle;Max_cycle;Signal;HPM_P1;HPM_P2
2023/01/02 00:00:25;;;;;;;8.93;4.90;;;11.70;99.90;;;;;;5113680;28;20408;-64
2023/01/02 00:02:52;;;;;;;7.78;4.30;;;11.70;99.90;;;;;;5114359;28;20408;-65
2023/01/02 00:05:18;;;;;;;12.52;5.70;;;11.70;99.90;;;;;;5114515;28;20408;-65
2023/01/02 00:07:46;;;;;;;10.80;4.90;;;11.60;99.90;;;;;;5114238;28;20408;-64
2023/01/02 00:10:13;;;;;;;8.93;4.47;;;11.70;99.90;;;;;;5113852;28;20779;-64
2023/01/02 00:12:40;;;;;;;11.25;4.50;;;11.60;99.90;;;;;;5114566;28;20420;-64
2023/01/02 00:15:07;;;;;;;5.30;4.07;;;11.70;99.90;;;;;;5114510;28;20424;-64
2023/01/02 00:17:34;;;;;;;9.53;4.37;;;11.70;99.90;;;;;;5114035;28;20799;-64
2023/01/02 00:20:01;;;;;;;8.00;4.07;;;11.60;99.90;;;;;;5113995;28;20408;-64
2023/01/02 00:22:27;;;;;;;6.60;4.20;;;11.60;99.90;;;;;;5113705;28;20412;-64
2023/01/02 00:24:56;;;;;;;9.75;4.22;;;11.60;99.90;;;;;;5114297;28;20423;-64
2023/01/02 00:27:22;;;;;;;7.40;4.45;;;11.60;99.90;;;;;;5118115;28;20422;-64
2023/01/02 00:29:49;;;;;;;6.27;4.00;;;11.70;99.90;;;;;;5118264;28;20757;-64
2023/01/02 00:32:16;;;;;;;7.53;4.30;;;11.70;99.90;;;;;;5118240;28;20497;-64
2023/01/02 00:34:42;;;;;;;7.50;3.97;;;11.70;99.90;;;;;;5119860;28;20737;-64
2023/01/02 00:37:09;;;;;;;12.67;4.33;;;11.70;99.90;;;;;;5119463;28;20429;-64
2023/01/02 00:39:36;;;;;;;8.20;4.07;;;11.70;99.90;;;;;;5119240;28;20408;-64
2023/01/02 00:42:04;;;;;;;9.03;4.10;;;11.70;99.90;;;;;;5118724;28;20404;-65
2023/01/02 00:44:30;;;;;;;5.30;3.85;;;11.70;99.90;;;;;;5118747;28;20400;-63
2023/01/02 00:46:57;;;;;;;6.75;3.90;;;11.80;99.90;;;;;;5119159;28;20430;-64
2023/01/02 00:49:24;;;;;;;9.18;4.50;;;11.80;99.90;;;;;;5118446;28;20408;-64
2023/01/02 00:51:50;;;;;;;6.90;3.85;;;11.80;99.90;;;;;;5117564;28;20400;-64
2023/01/02 00:54:17;;;;;;;7.10;4.10;;;11.80;99.90;;;;;;5118340;28;20404;-64
2023/01/02 00:56:44;;;;;;;9.45;4.32;;;11.80;99.90;;;;;;5118065;28;20424;-64
2023/01/02 00:59:12;;;;;;;6.78;4.20;;;11.80;99.90;;;;;;5119858;28;20772;-64
2023/01/02 01:01:39;;;;;;;8.30;3.70;;;11.80;99.90;;;;;;5119472;28;20416;-64
2023/01/02 01:04:05;;;;;;;9.18;4.15;;;11.80;99.90;;;;;;5118689;28;20412;-64
2023/01/02 01:06:33;;;;;;;6.15;3.47;;;11.80;99.90;;;;;;5118132;28;20408;-63
2023/01/02 01:09:00;;;;;;;7.15;3.55;;;11.80;99.90;;;;;;5118281;28;20412;-64
2023/01/02 01:11:26;;;;;;;11.10;4.20;;;11.80;99.90;;;;;;5117862;28;20416;-64
2023/01/02 01:13:53;;;;;;;7.65;3.80;;;11.80;99.90;;;;;;5117388;28;20887;-65
2023/01/02 01:16:21;;;;;;;7.80;3.60;;;11.90;99.90;;;;;;5117231;28;20424;-64
2023/01/02 01:18:48;;;;;;;7.00;3.70;;;11.90;99.90;;;;;;5117101;28;20412;-64
2023/01/02 01:21:17;;;;;;;7.10;3.80;;;11.90;99.90;;;;;;5117016;28;20416;-64
2023/01/02 01:23:44;;;;;;;7.20;3.50;;;12.00;99.90;;;;;;5115742;28;20418;-63
2023/01/02 01:26:13;;;;;;;6.00;3.13;;;12.00;99.90;;;;;;5115919;28;20411;-64
2023/01/02 01:28:40;;;;;;;6.15;3.40;;;12.00;99.90;;;;;;5115247;28;20400;-64
2023/01/02 01:31:09;;;;;;;7.65;3.60;;;12.10;99.90;;;;;;5115867;28;20408;-63
2023/01/02 01:33:38;;;;;;;6.45;3.10;;;12.10;99.90;;;;;;5115784;28;20415;-64
2023/01/02 01:36:07;;;;;;;7.90;3.83;;;12.10;99.90;;;;;;5115862;28;20425;-64
2023/01/02 01:38:34;;;;;;;6.25;3.80;;;12.10;99.90;;;;;;5115098;28;20412;-63
2023/01/02 01:41:02;;;;;;;6.22;3.20;;;12.20;99.90;;;;;;5115680;28;20404;-64
2023/01/02 01:43:41;;;;;;;7.93;3.78;;;12.20;99.90;;;;;;5115785;28;20424;-64
2023/01/02 01:46:21;;;;;;;6.10;3.20;;;12.30;99.90;;;;;;5115342;28;20411;-64
2023/01/02 01:48:57;;;;;;;7.95;3.47;;;12.20;99.90;;;;;;5115112;28;20423;-64
2023/01/02 01:51:25;;;;;;;6.57;3.60;;;12.30;99.90;;;;;;5114762;28;20896;-63
2023/01/02 01:53:57;;;;;;;9.10;3.80;;;12.30;99.90;;;;;;5114779;28;20412;-64
2023/01/02 01:56:24;;;;;;;8.73;3.90;;;12.30;99.90;;;;;;5114739;28;20427;-64
2023/01/02 01:58:51;;;;;;;5.40;3.00;;;12.30;99.90;;;;;;5114732;28;20887;-64
2023/01/02 02:01:18;;;;;;;6.45;3.50;;;12.30;99.90;;;;;;5115134;28;20457;-64
2023/01/02 02:03:49;;;;;;;7.50;3.15;;;12.30;99.90;;;;;;5114988;28;20423;-63
2023/01/02 02:06:17;;;;;;;7.03;3.20;;;12.20;99.90;;;;;;5115199;28;20405;-64
2023/01/02 02:08:50;;;;;;;8.00;3.20;;;12.30;99.90;;;;;;5114775;28;20415;-63
2023/01/02 02:11:17;;;;;;;4.95;3.20;;;12.30;99.90;;;;;;5114890;28;20404;-64
2023/01/02 02:13:44;;;;;;;5.03;2.90;;;12.30;99.90;;;;;;5114709;28;20412;-63
2023/01/02 02:16:20;;;;;;;5.93;3.17;;;12.30;99.90;;;;;;5114952;28;20423;-63
2023/01/02 02:19:13;;;;;;;7.38;3.17;;;12.40;99.90;;;;;;5114929;28;20423;-64
2023/01/02 02:22:09;;;;;;;5.65;3.00;;;12.40;99.90;;;;;;5114819;28;20404;-64
2023/01/02 02:24:54;;;;;;;7.75;3.20;;;12.40;99.90;;;;;;5114890;28;20407;-68
2023/01/02 02:27:59;;;;;;;6.20;3.00;;;12.40;99.90;;;;;;5114707;28;20404;-65
2023/01/02 02:30:34;;;;;;;7.20;3.40;;;12.40;99.90;;;;;;5096698;28;20435;-63
2023/01/02 02:33:20;;;;;;;8.67;3.70;;;12.40;99.90;;;;;;5114464;28;20412;-65
2023/01/02 02:35:59;;;;;;;5.40;3.00;;;12.40;99.90;;;;;;5114669;28;20424;-64
2023/01/02 02:38:47;;;;;;;6.63;3.37;;;12.40;99.90;;;;;;5114189;28;20465;-64
2023/01/02 02:41:25;;;;;;;7.32;3.63;;;12.40;99.90;;;;;;5114150;28;20869;-62
2023/01/02 02:44:02;;;;;;;7.85;3.60;;;12.40;99.90;;;;;;5114152;28;20749;-63
2023/01/02 02:46:37;;;;;;;5.95;3.10;;;12.40;99.90;;;;;;5115004;28;20400;-63
2023/01/02 02:49:08;;;;;;;7.93;3.80;;;12.40;99.90;;;;;;5113184;28;20411;-65
2023/01/02 02:51:39;;;;;;;6.80;3.28;;;12.40;99.90;;;;;;5113920;28;20412;-64
2023/01/02 02:54:11;;;;;;;7.00;3.10;;;12.50;99.90;;;;;;5113640;28;20776;-63
2023/01/02 02:56:40;;;;;;;8.63;3.45;;;12.50;99.90;;;;;;5113692;28;20808;-63
2023/01/02 02:59:07;;;;;;;6.57;3.30;;;12.60;99.90;;;;;;5113402;28;20795;-63
2023/01/02 03:01:36;;;;;;;4.95;2.90;;;12.60;99.90;;;;;;5114146;28;20412;-63
2023/01/02 03:04:04;;;;;;;6.00;3.20;;;12.70;99.90;;;;;;5113608;28;20408;-63
2023/01/02 03:06:45;;;;;;;6.43;3.20;;;12.70;99.90;;;;;;5113523;28;20416;-63
2023/01/02 03:09:18;;;;;;;5.10;3.13;;;12.60;99.90;;;;;;5114170;28;20444;-64
2023/01/02 03:11:51;;;;;;;6.18;3.10;;;12.60;99.90;;;;;;5113286;28;20435;-63
2023/01/02 03:14:24;;;;;;;5.50;3.17;;;12.60;99.90;;;;;;5113392;28;20404;-64
2023/01/02 03:16:57;;;;;;;7.18;2.80;;;12.60;99.90;;;;;;5117998;28;20417;-63
2023/01/02 03:19:29;;;;;;;8.98;2.90;;;12.60;99.90;;;;;;5120012;28;20427;-63
2023/01/02 03:22:00;;;;;;;8.90;3.42;;;12.60;99.90;;;;;;5120722;28;20422;-63
2023/01/02 03:24:28;;;;;;;8.43;3.30;;;12.70;99.90;;;;;;5121468;28;20516;-64
2023/01/02 03:26:59;;;;;;;6.95;2.90;;;12.70;99.90;;;;;;5119885;28;20412;-64
2023/01/02 03:29:31;;;;;;;7.30;3.33;;;12.70;99.90;;;;;;5117716;28;20416;-64
2023/01/02 03:32:03;;;;;;;5.28;2.72;;;12.80;99.90;;;;;;5116363;28;20749;-63
2023/01/02 03:34:35;;;;;;;9.45;3.50;;;12.80;99.90;;;;;;5115335;28;20416;-64
2023/01/02 03:37:06;;;;;;;10.00;3.10;;;12.80;99.90;;;;;;5115585;28;20915;-64
2023/01/02 03:39:39;;;;;;;6.70;3.47;;;12.80;99.90;;;;;;5114950;28;20412;-64
2023/01/02 03:42:11;;;;;;;6.35;3.10;;;12.80;99.90;;;;;;5114711;28;20412;-63
2023/01/02 03:44:43;;;;;;;6.90;3.40;;;12.80;99.90;;;;;;5114370;28;20416;-63
2023/01/02 03:47:21;;;;;;;6.72;3.30;;;12.80;99.90;;;;;;5114327;28;20419;-64
2023/01/02 03:49:53;;;;;;;7.00;3.33;;;12.80;99.90;;;;;;5114523;28;20420;-63
2023/01/02 03:52:20;;;;;;;6.13;3.20;;;12.80;99.90;;;;;;5114201;28;20408;-63
2023/01/02 03:54:47;;;;;;;4.90;3.03;;;12.80;99.90;;;;;;5114311;28;20519;-63
2023/01/02 03:57:23;;;;;;;6.80;3.65;;;12.70;99.90;;;;;;5114493;28;20416;-64
2023/01/02 03:59:59;;;;;;;6.13;3.47;;;12.70;99.90;;;;;;5114080;28;20416;-63
2023/01/02 04:02:34;;;;;;;6.78;3.50;;;12.70;99.90;;;;;;5113413;28;20413;-63
2023/01/02 04:05:08;;;;;;;6.20;3.50;;;12.60;99.90;;;;;;5113722;28;20906;-64
2023/01/02 04:10:59;;;;;;;8.30;3.50;;;12.60;99.90;;;;;;5113898;27;20365;-63
2023/01/02 04:13:30;;;;;;;6.05;3.05;;;12.50;99.90;;;;;;5110777;28;20412;-64
2023/01/02 04:16:00;;;;;;;8.17;3.70;;;12.50;99.90;;;;;;5110282;28;20409;-64
2023/01/02 04:18:30;;;;;;;6.18;3.22;;;12.50;99.90;;;;;;5109950;28;20405;-63
2023/01/02 04:21:05;;;;;;;6.47;3.60;;;12.50;99.90;;;;;;5109885;28;20405;-63
2023/01/02 04:23:36;;;;;;;5.40;3.95;;;12.50;99.90;;;;;;5110351;28;20412;-65
2023/01/02 04:26:07;;;;;;;6.97;3.40;;;12.50;99.90;;;;;;5109847;28;20409;-63
2023/01/02 04:28:35;;;;;;;8.35;3.60;;;12.40;99.90;;;;;;5109409;28;20877;-64
2023/01/02 04:31:07;;;;;;;5.75;3.45;;;12.40;99.90;;;;;;5109766;28;20418;-64
2023/01/02 04:33:38;;;;;;;5.82;3.42;;;12.40;99.90;;;;;;5109367;28;20405;-65
2023/01/02 04:36:08;;;;;;;6.80;3.10;;;12.40;99.90;;;;;;5109492;28;20413;-63
2023/01/02 04:38:35;;;;;;;9.67;3.40;;;12.40;99.90;;;;;;5109653;28;20412;-65
2023/01/02 04:41:04;;;;;;;10.52;4.00;;;12.50;99.90;;;;;;5109329;28;20416;-64
2023/01/02 04:43:31;;;;;;;6.78;3.40;;;12.50;99.90;;;;;;5109416;28;20413;-64
2023/01/02 04:45:57;;;;;;;7.00;3.10;;;12.50;99.90;;;;;;5109400;28;20416;-64
2023/01/02 04:48:24;;;;;;;9.27;4.43;;;12.50;99.90;;;;;;5109719;28;20414;-63
2023/01/02 04:50:53;;;;;;;5.45;3.40;;;12.50;99.90;;;;;;5108747;28;20908;-63
2023/01/02 04:53:20;;;;;;;8.30;3.30;;;12.50;99.90;;;;;;5110461;28;20417;-64
2023/01/02 04:55:47;;;;;;;7.63;3.33;;;12.50;99.90;;;;;;5108800;28;20908;-64
2023/01/02 04:58:15;;;;;;;6.80;3.30;;;12.50;99.90;;;;;;5109218;28;20428;-64
2023/01/02 05:00:41;;;;;;;8.00;3.50;;;12.50;99.90;;;;;;5109162;28;20401;-62
2023/01/02 05:03:08;;;;;;;9.90;3.55;;;12.50;99.90;;;;;;5108530;28;20893;-64
2023/01/02 05:05:35;;;;;;;6.38;3.50;;;12.60;99.90;;;;;;5109822;28;20425;-63
2023/01/02 05:08:01;;;;;;;7.82;3.00;;;12.60;99.90;;;;;;5111145;28;20412;-64
2023/01/02 05:10:28;;;;;;;7.63;3.30;;;12.60;99.90;;;;;;5126748;28;20791;-64
2023/01/02 05:12:57;;;;;;;7.68;3.13;;;12.60;99.90;;;;;;5130051;28;20408;-64
2023/01/02 05:15:25;;;;;;;6.80;3.17;;;12.60;99.90;;;;;;5130164;28;20420;-64
2023/01/02 05:17:52;;;;;;;8.90;3.53;;;12.60;99.90;;;;;;5130981;28;20411;-64
2023/01/02 05:20:19;;;;;;;5.32;3.00;;;12.70;99.90;;;;;;5126972;28;20412;-64
2023/01/02 05:25:32;;;;;;;6.20;3.20;;;12.70;99.90;;;;;;5115457;28;20469;-65
2023/01/02 05:27:59;;;;;;;6.15;3.10;;;12.70;99.90;;;;;;5115540;28;20415;-65
2023/01/02 05:30:27;;;;;;;11.48;3.38;;;12.70;99.90;;;;;;5115136;28;20804;-64
2023/01/02 05:32:54;;;;;;;6.07;2.80;;;12.60;99.90;;;;;;5115400;28;20408;-64
2023/01/02 05:35:20;;;;;;;6.55;3.25;;;12.60;99.90;;;;;;5114960;28;20404;-64
2023/01/02 05:37:47;;;;;;;7.90;3.28;;;12.60;99.90;;;;;;5114778;28;20408;-64
2023/01/02 05:40:14;;;;;;;8.75;3.50;;;12.60;99.90;;;;;;5115141;28;20408;-64
2023/01/02 05:42:41;;;;;;;8.57;3.40;;;12.60;99.90;;;;;;5114877;28;20416;-64
2023/01/02 05:45:09;;;;;;;9.90;3.60;;;12.60;99.90;;;;;;5115077;28;20411;-65
2023/01/02 05:47:37;;;;;;;8.77;3.40;;;12.60;99.90;;;;;;5114724;28;20428;-64
2023/01/02 05:50:04;;;;;;;6.95;3.30;;;12.60;99.90;;;;;;5115326;28;20526;-63
2023/01/02 05:52:30;;;;;;;7.20;3.33;;;12.50;99.90;;;;;;5115454;28;20404;-64
2023/01/02 05:54:57;;;;;;;5.47;3.50;;;12.60;99.90;;;;;;5115245;28;20876;-63
2023/01/02 05:57:24;;;;;;;8.40;3.30;;;12.60;99.90;;;;;;5114973;28;20415;-64
2023/01/02 05:59:51;;;;;;;7.60;3.80;;;12.60;99.90;;;;;;5115327;28;20400;-64
2023/01/02 06:02:17;;;;;;;5.90;3.40;;;12.60;99.90;;;;;;5114784;28;20881;-64
2023/01/02 06:04:45;;;;;;;4.40;3.10;;;12.70;99.90;;;;;;5115496;28;20427;-64
2023/01/02 06:07:12;;;;;;;8.05;3.40;;;12.70;99.90;;;;;;5114966;28;20415;-64
2023/01/02 06:09:39;;;;;;;7.40;3.60;;;12.70;99.90;;;;;;5114653;28;20428;-65
2023/01/02 06:12:06;;;;;;;10.80;4.50;;;12.70;99.90;;;;;;5114973;28;20408;-64
2023/01/02 06:14:32;;;;;;;5.55;3.03;;;12.70;99.90;;;;;;5115150;28;20412;-64
2023/01/02 06:16:59;;;;;;;7.55;3.00;;;12.60;99.90;;;;;;5114666;28;20404;-64
2023/01/02 06:19:26;;;;;;;5.30;3.30;;;12.60;99.90;;;;;;5114746;28;20416;-64
2023/01/02 06:21:54;;;;;;;8.00;3.90;;;12.60;99.90;;;;;;5115082;28;20405;-64
2023/01/02 06:24:20;;;;;;;6.70;3.00;;;12.60;99.90;;;;;;5114413;28;20806;-63
2023/01/02 06:26:47;;;;;;;6.35;3.40;;;12.50;99.90;;;;;;5115001;28;20416;-64
2023/01/02 06:29:14;;;;;;;5.70;3.20;;;12.50;99.90;;;;;;5114142;28;20895;-65
2023/01/02 06:31:41;;;;;;;6.90;2.95;;;12.40;99.90;;;;;;5114215;28;20420;-64
2023/01/02 06:34:09;;;;;;;6.50;3.40;;;12.40;99.90;;;;;;5113264;28;20810;-64
2023/01/02 06:36:36;;;;;;;8.02;3.08;;;12.30;99.90;;;;;;5114182;28;20416;-64
2023/01/02 06:39:04;;;;;;;7.10;3.25;;;12.40;99.90;;;;;;5114855;28;20415;-63
2023/01/02 06:41:31;;;;;;;9.02;3.58;;;12.40;99.90;;;;;;5114313;28;20426;-63
2023/01/02 06:43:58;;;;;;;6.40;3.00;;;12.40;99.90;;;;;;5114295;28;20435;-64
2023/01/02 06:46:24;;;;;;;5.53;2.80;;;12.40;99.90;;;;;;5114159;28;20931;-65
2023/01/02 06:48:51;;;;;;;6.55;2.90;;;12.40;99.90;;;;;;5114290;28;20408;-64
2023/01/02 06:51:20;;;;;;;5.70;2.87;;;12.50;99.90;;;;;;5114369;28;20435;-64
2023/01/02 06:53:48;;;;;;;5.10;2.92;;;12.60;99.90;;;;;;5113658;28;20768;-63
2023/01/02 06:56:18;;;;;;;7.00;2.90;;;12.70;99.90;;;;;;5113918;28;20404;-65
2023/01/02 06:58:45;;;;;;;5.55;2.70;;;12.80;99.90;;;;;;5113978;28;20412;-64
2023/01/02 07:01:14;;;;;;;6.00;2.83;;;12.80;99.90;;;;;;5113351;28;20415;-65
2023/01/02 07:03:41;;;;;;;6.80;3.00;;;12.90;99.90;;;;;;5113430;28;20420;-62
2023/01/02 07:06:09;;;;;;;8.25;3.17;;;13.00;99.90;;;;;;5113475;28;20749;-64
2023/01/02 07:08:36;;;;;;;5.13;2.60;;;13.00;99.90;;;;;;5114019;28;20414;-64
2023/01/02 07:11:08;;;;;;;5.38;3.30;;;13.10;99.90;;;;;;5113182;28;20424;-64
2023/01/02 07:13:36;;;;;;;9.00;2.88;;;13.20;99.90;;;;;;5113806;28;20465;-64
2023/01/02 07:16:04;;;;;;;8.40;2.83;;;13.20;99.90;;;;;;5113516;28;21001;-64
2023/01/02 07:18:31;;;;;;;6.30;3.00;;;13.30;99.90;;;;;;5113655;28;20439;-65
2023/01/02 07:20:58;;;;;;;7.23;3.20;;;13.30;99.90;;;;;;5113234;28;20416;-64
2023/01/02 07:23:25;;;;;;;5.50;2.88;;;13.30;99.90;;;;;;5112954;28;20899;-64
2023/01/02 07:25:54;;;;;;;8.43;2.90;;;13.40;99.90;;;;;;5113211;28;20411;-64
2023/01/02 07:28:21;;;;;;;5.50;2.90;;;13.40;99.90;;;;;;5113485;27;20440;-64
2023/01/02 07:30:49;;;;;;;6.88;2.50;;;13.40;99.90;;;;;;5113258;28;20428;-66
2023/01/02 07:33:16;;;;;;;6.50;2.60;;;13.40;99.90;;;;;;5113180;28;20438;-65
2023/01/02 07:35:44;;;;;;;7.70;2.80;;;13.40;99.90;;;;;;5113267;28;20749;-65
2023/01/02 07:38:11;;;;;;;7.38;2.63;;;13.50;99.90;;;;;;5112826;28;20503;-64
2023/01/02 07:40:37;;;;;;;4.90;2.97;;;13.50;99.90;;;;;;5112686;28;20442;-65
2023/01/02 07:43:04;;;;;;;7.30;3.20;;;13.50;99.90;;;;;;5113420;28;20404;-65
2023/01/02 07:45:32;;;;;;;7.97;2.95;;;13.50;99.90;;;;;;5112795;28;20404;-64
2023/01/02 07:48:00;;;;;;;5.03;2.80;;;13.50;99.90;;;;;;5113466;28;20427;-65
2023/01/02 07:50:27;;;;;;;4.40;2.30;;;13.50;99.90;;;;;;5112962;28;20428;-64
2023/01/02 07:52:53;;;;;;;5.65;2.60;;;13.50;99.90;;;;;;5112653;28;20412;-64
2023/01/02 07:55:20;;;;;;;6.28;2.30;;;13.40;99.90;;;;;;5112812;28;20405;-63
2023/01/02 07:57:47;;;;;;;5.22;2.60;;;13.40;99.90;;;;;;5112643;28;20416;-64
2023/01/02 08:00:15;;;;;;;6.83;3.20;;;13.40;99.90;;;;;;5113473;28;20489;-65
2023/01/02 08:02:41;;;;;;;5.70;2.65;;;13.30;99.90;;;;;;5112843;28;20486;-63
2023/01/02 08:05:09;;;;;;;7.72;2.88;;;13.30;99.90;;;;;;5112768;28;20415;-64
2023/01/02 08:07:36;;;;;;;6.90;3.00;;;13.20;99.90;;;;;;5112761;28;20884;-64
2023/01/02 08:10:03;;;;;;;7.63;2.75;;;13.20;99.90;;;;;;5112459;28;20435;-64
2023/01/02 08:12:30;;;;;;;5.32;2.55;;;13.20;99.90;;;;;;5114320;28;20416;-64
2023/01/02 08:14:57;;;;;;;5.28;3.03;;;13.20;99.90;;;;;;5122517;28;20419;-65
2023/01/02 08:17:23;;;;;;;5.88;2.60;;;13.20;99.90;;;;;;5120145;28;20407;-65
2023/01/02 08:19:50;;;;;;;6.85;2.60;;;13.20;99.90;;;;;;5115099;28;20410;-66
2023/01/02 08:22:18;;;;;;;6.35;2.55;;;13.20;99.90;;;;;;5112832;28;20415;-64
2023/01/02 08:24:45;;;;;;;6.80;2.35;;;13.30;99.90;;;;;;5112849;28;20422;-64
2023/01/02 08:27:11;;;;;;;5.68;2.50;;;13.30;99.90;;;;;;5112910;28;20411;-64
2023/01/02 08:29:38;;;;;;;9.70;3.30;;;13.30;99.90;;;;;;5112459;28;20768;-64
2023/01/02 08:32:05;;;;;;;5.82;2.78;;;13.30;99.90;;;;;;5121326;28;20419;-64
2023/01/02 08:34:34;;;;;;;6.57;2.42;;;13.40;99.90;;;;;;5126355;28;20412;-65
2023/01/02 08:37:01;;;;;;;5.30;2.60;;;13.40;99.90;;;;;;5124772;28;20412;-64
2023/01/02 08:39:29;;;;;;;5.85;2.50;;;13.40;99.90;;;;;;5126267;28;20407;-65
2023/01/02 08:41:56;;;;;;;5.60;2.40;;;13.50;99.90;;;;;;5125811;28;20491;-65
2023/01/02 08:44:23;;;;;;;5.35;2.60;;;13.50;99.90;;;;;;5122232;28;20408;-64
2023/01/02 08:46:50;;;;;;;6.85;2.70;;;13.50;99.90;;;;;;5117865;28;20408;-64
2023/01/02 08:49:17;;;;;;;4.30;2.33;;;13.60;99.90;;;;;;5113261;28;20409;-64
2023/01/02 08:51:43;;;;;;;6.50;2.50;;;13.60;99.90;;;;;;5112843;28;20435;-63
2023/01/02 08:54:10;;;;;;;5.28;2.60;;;13.60;99.90;;;;;;5112556;28;20409;-65
2023/01/02 08:56:40;;;;;;;6.47;2.67;;;13.60;99.90;;;;;;5115747;28;20408;-65
2023/01/02 08:59:08;;;;;;;4.05;2.47;;;13.70;99.90;;;;;;5117104;28;20404;-64
2023/01/02 09:01:36;;;;;;;5.55;2.42;;;13.70;99.90;;;;;;5117325;28;20772;-64
2023/01/02 09:04:03;;;;;;;6.32;2.33;;;13.70;99.90;;;;;;5117095;28;20419;-65
2023/01/02 09:06:32;;;;;;;6.18;2.40;;;13.70;99.90;;;;;;5116721;28;20427;-64
2023/01/02 09:08:59;;;;;;;5.25;2.60;;;13.80;99.90;;;;;;5115983;28;20412;-64
2023/01/02 09:11:28;;;;;;;6.25;2.70;;;13.80;99.90;;;;;;5116957;28;20427;-65
2023/01/02 09:13:57;;;;;;;6.05;2.30;;;13.80;99.90;;;;;;5116755;28;20412;-65
2023/01/02 09:16:24;;;;;;;4.68;2.20;;;13.80;99.90;;;;;;5116822;28;20889;-64
2023/01/02 09:18:52;;;;;;;5.18;2.50;;;13.90;99.90;;;;;;5117899;28;20475;-63
2023/01/02 09:21:19;;;;;;;4.60;2.30;;;13.90;99.90;;;;;;5119519;28;20412;-65
2023/01/02 09:23:45;;;;;;;4.60;2.20;;;13.90;99.90;;;;;;5117144;28;20407;-65
2023/01/02 09:26:13;;;;;;;4.85;2.30;;;13.90;99.90;;;;;;5119886;28;20400;-64
2023/01/02 09:28:40;;;;;;;6.07;2.45;;;14.00;99.90;;;;;;5117876;28;20404;-65
2023/01/02 09:31:10;;;;;;;4.40;2.40;;;14.00;99.90;;;;;;5116212;28;20421;-64
2023/01/02 09:33:36;;;;;;;3.97;2.10;;;14.00;99.90;;;;;;5116497;28;20407;-65
2023/01/02 09:36:04;;;;;;;4.33;2.03;;;14.10;99.90;;;;;;5116267;28;20409;-64
2023/01/02 09:38:31;;;;;;;5.38;2.30;;;14.10;99.90;;;;;;5116353;28;20419;-64
2023/01/02 09:40:59;;;;;;;3.83;2.05;;;14.10;99.90;;;;;;5116072;28;20404;-64
2023/01/02 09:43:35;;;;;;;3.65;2.00;;;14.20;99.90;;;;;;5116620;28;20420;-63
2023/01/02 09:46:04;;;;;;;5.55;2.38;;;14.20;99.90;;;;;;5115609;28;20424;-64
2023/01/02 09:48:35;;;;;;;4.20;1.80;;;14.30;99.90;;;;;;5115495;28;20788;-63
2023/01/02 09:51:03;;;;;;;5.30;2.00;;;14.30;99.70;;;;;;5116289;28;20416;-63
2023/01/02 09:53:31;;;;;;;5.70;2.00;;;14.40;99.30;;;;;;5117668;28;20414;-63
2023/01/02 09:56:08;;;;;;;3.93;2.10;;;14.40;99.00;;;;;;5119082;28;20408;-64
2023/01/02 09:58:40;;;;;;;3.50;1.80;;;14.40;98.90;;;;;;5120366;28;20444;-64
2023/01/02 10:01:13;;;;;;;6.60;2.00;;;14.40;98.70;;;;;;5122714;28;20412;-64
2023/01/02 10:03:48;;;;;;;5.35;2.30;;;14.50;98.40;;;;;;5127368;28;20412;-64
2023/01/02 10:06:17;;;;;;;5.45;2.08;;;14.50;98.00;;;;;;5127891;28;20412;-64
2023/01/02 10:09:00;;;;;;;7.47;2.40;;;14.60;97.70;;;;;;5125989;28;20405;-64
2023/01/02 10:11:44;;;;;;;4.88;1.80;;;14.60;97.60;;;;;;5125946;28;20930;-64
2023/01/02 10:14:17;;;;;;;5.43;2.42;;;14.70;97.60;;;;;;5126653;28;20412;-65
2023/01/02 10:16:47;;;;;;;5.95;2.22;;;14.70;97.30;;;;;;5124976;28;20412;-65
2023/01/02 10:19:19;;;;;;;3.80;1.80;;;14.60;97.20;;;;;;5123321;28;20495;-64
2023/01/02 10:21:49;;;;;;;3.75;2.20;;;14.60;97.40;;;;;;5117021;28;20404;-64
2023/01/02 10:24:20;;;;;;;3.55;1.90;;;14.50;98.00;;;;;;5116110;28;20408;-64
2023/01/02 10:26:52;;;;;;;5.85;2.10;;;14.40;98.70;;;;;;5116163;28;20412;-64
2023/01/02 10:29:27;;;;;;;4.28;1.90;;;14.30;99.90;;;;;;5116204;28;20408;-63
2023/01/02 10:31:59;;;;;;;4.80;2.20;;;14.00;99.90;;;;;;5116019;28;20432;-64
2023/01/02 10:34:39;;;;;;;6.45;2.40;;;13.80;99.90;;;;;;5117483;28;20419;-65
2023/01/02 10:37:12;;;;;;;5.00;2.65;;;13.70;99.90;;;;;;5118667;28;20409;-64
2023/01/02 10:39:40;;;;;;;7.45;2.50;;;13.60;99.90;;;;;;5119586;28;20861;-64
2023/01/02 10:42:10;;;;;;;5.95;2.42;;;13.60;99.90;;;;;;5120228;28;20891;-63
2023/01/02 10:44:38;;;;;;;5.60;2.20;;;13.50;99.90;;;;;;5120889;28;20412;-64
2023/01/02 10:47:18;;;;;;;4.07;2.20;;;13.50;99.90;;;;;;5120778;28;20416;-64
2023/01/02 10:49:46;;;;;;;4.80;2.35;;;13.60;99.90;;;;;;5121200;28;20442;-64
2023/01/02 10:52:27;;;;;;;6.13;2.40;;;13.60;99.90;;;;;;5122715;28;20449;-64
2023/01/02 10:54:55;;;;;;;5.17;2.37;;;13.60;99.90;;;;;;5122079;28;20504;-63
2023/01/02 10:57:25;;;;;;;3.95;1.85;;;13.70;99.90;;;;;;5120383;28;20408;-65
2023/01/02 10:59:58;;;;;;;3.20;1.90;;;13.70;99.90;;;;;;5118449;28;20412;-64
2023/01/02 11:02:28;;;;;;;5.82;1.90;;;13.80;99.90;;;;;;5119921;27;20415;-64
2023/01/02 11:04:59;;;;;;;4.60;1.88;;;13.80;99.90;;;;;;5120536;28;20473;-64
2023/01/02 11:07:28;;;;;;;6.13;2.15;;;13.90;99.90;;;;;;5119177;27;20412;-63
2023/01/02 11:09:56;;;;;;;5.57;2.10;;;13.90;99.90;;;;;;5118390;28;20412;-64
2023/01/02 11:12:23;;;;;;;5.65;2.10;;;14.00;99.90;;;;;;5117288;28;20423;-64
2023/01/02 11:14:50;;;;;;;4.00;2.10;;;14.00;99.90;;;;;;5118221;28;20405;-64
2023/01/02 11:17:19;;;;;;;4.38;2.00;;;14.10;99.90;;;;;;5117717;28;20420;-64
2023/01/02 11:19:48;;;;;;;3.10;2.00;;;14.00;99.90;;;;;;5116835;28;20416;-64
2023/01/02 11:22:18;;;;;;;5.07;2.10;;;14.00;99.90;;;;;;5127006;28;20411;-64
2023/01/02 11:24:51;;;;;;;4.95;2.47;;;13.90;99.90;;;;;;5125571;28;20416;-65
2023/01/02 11:27:18;;;;;;;8.02;2.42;;;13.90;99.90;;;;;;5125379;28;20412;-66
2023/01/02 11:29:47;;;;;;;4.70;2.00;;;13.90;99.90;;;;;;5124518;28;20437;-64
2023/01/02 11:32:23;;;;;;;5.70;2.05;;;13.80;99.90;;;;;;5127444;28;20426;-65
2023/01/02 11:34:56;;;;;;;4.10;2.17;;;13.80;99.90;;;;;;5122805;28;20838;-64
2023/01/02 11:37:25;;;;;;;3.13;1.95;;;13.80;99.90;;;;;;5115752;28;20419;-64
2023/01/02 11:40:00;;;;;;;4.07;2.00;;;13.70;99.90;;;;;;5113933;28;20902;-64
2023/01/02 11:45:20;;;;;;;5.40;2.33;;;13.60;99.90;;;;;;5114558;28;20395;-64
2023/01/02 11:47:49;;;;;;;4.60;2.00;;;13.50;99.90;;;;;;5114397;28;20408;-61
2023/01/02 11:50:22;;;;;;;3.25;2.10;;;13.50;99.90;;;;;;5114692;28;20419;-63
2023/01/02 11:52:54;;;;;;;4.15;2.30;;;13.40;99.90;;;;;;5114864;28;20423;-63
2023/01/02 11:55:35;;;;;;;3.33;2.10;;;13.40;99.90;;;;;;5116403;28;20416;-61
2023/01/02 11:58:11;;;;;;;4.07;2.00;;;13.40;99.90;;;;;;5115703;28;20416;-62
2023/01/02 12:00:41;;;;;;;3.58;1.92;;;13.40;99.90;;;;;;5115106;28;20415;-64
2023/01/02 12:03:16;;;;;;;3.83;1.90;;;13.30;99.90;;;;;;5115295;28;20895;-64
2023/01/02 12:05:55;;;;;;;2.35;1.60;;;13.30;99.90;;;;;;5116049;28;20416;-64
2023/01/02 12:08:40;;;;;;;3.60;1.77;;;13.20;99.90;;;;;;5115550;28;20412;-63
2023/01/02 12:11:20;;;;;;;4.32;1.90;;;12.90;99.90;;;;;;5116110;28;20411;-63
2023/01/02 12:13:57;;;;;;;2.03;1.80;;;12.80;99.90;;;;;;5116144;28;20412;-64
2023/01/02 12:16:35;;;;;;;4.82;1.60;;;12.70;99.90;;;;;;5116424;28;20416;-63
2023/01/02 12:19:43;;;;;;;2.95;1.60;;;12.70;99.90;;;;;;5113128;28;20423;-64
2023/01/02 12:22:30;;;;;;;2.20;1.52;;;12.80;99.90;;;;;;5030177;28;20426;-64
2023/01/02 12:25:10;;;;;;;1.80;1.50;;;12.80;99.90;;;;;;5104881;28;20416;-64
2023/01/02 12:27:42;;;;;;;1.27;1.17;;;12.80;99.90;;;;;;5113303;28;20412;-65
2023/01/02 12:30:13;;;;;;;2.00;1.60;;;12.80;99.90;;;;;;5113337;28;20407;-63
2023/01/02 12:33:11;;;;;;;2.60;1.48;;;12.70;99.90;;;;;;5116848;28;20788;-64
2023/01/02 12:36:14;;;;;;;1.80;1.50;;;12.70;99.90;;;;;;5124921;27;20415;-63
2023/01/02 12:39:04;;;;;;;1.60;0.90;;;12.60;99.90;;;;;;5124329;28;20412;-65
2023/01/02 12:41:40;;;;;;;0.98;0.80;;;12.50;99.90;;;;;;5121444;28;20761;-61
2023/01/02 12:44:16;;;;;;;1.10;0.80;;;12.50;99.90;;;;;;5118730;28;20896;-63
2023/01/02 12:46:55;;;;;;;1.02;0.80;;;12.40;99.90;;;;;;5117441;28;20469;-63
2023/01/02 12:49:46;;;;;;;1.00;0.77;;;12.30;99.90;;;;;;5116761;28;20416;-63
2023/01/02 12:52:25;;;;;;;1.20;0.70;;;12.30;99.90;;;;;;5117398;28;20926;-62
2023/01/02 12:55:07;;;;;;;1.30;0.90;;;12.20;99.90;;;;;;5118901;28;20446;-64
2023/01/02 12:57:46;;;;;;;1.35;0.90;;;12.20;99.90;;;;;;5117209;28;20420;-62
2023/01/02 13:00:28;;;;;;;0.80;0.60;;;12.20;99.90;;;;;;5116824;28;20894;-64
2023/01/02 13:03:14;;;;;;;0.85;0.60;;;12.30;99.90;;;;;;5117767;28;20412;-63
2023/01/02 13:05:47;;;;;;;1.27;0.77;;;12.30;99.90;;;;;;5117458;28;20416;-64
2023/01/02 13:08:18;;;;;;;1.00;0.80;;;12.20;99.90;;;;;;5117919;28;20411;-63
2023/01/02 13:10:46;;;;;;;1.83;0.90;;;12.20;99.90;;;;;;5117221;28;20424;-63